Time;durP1;ratioP1;P1;durP2;ratioP2;P2;SDS_P1;SDS_P2;PMS_P1;PMS_P2;Temp;Humidity;BMP_temperature;BMP_pressure;BME280_temperature;BME280_humidity;BME280_pressure;Samples;Min_cycle;Max_cycle;Signal;HPM_P1;HPM_P2
2022/09/24 00:01:18;;;;;;;61.15;48.90;;;15.10;99.90;;;;;;5092988;28;20083;-55
2022/09/24 00:03:49;;;;;;;62.92;48.35;;;12.90;99.90;;;;;;5093649;27;20039;-56
2022/09/24 00:06:17;;;;;;;67.53;52.05;;;13.00;99.90;;;;;;5093519;28;20039;-56
2022/09/24 00:08:45;;;;;;;63.80;50.88;;;12.80;99.90;;;;;;5092786;28;20096;-55
2022/09/24 00:11:11;;;;;;;67.45;50.40;;;12.70;99.90;;;;;;5092439;28;20040;-56
2022/09/24 00:13:38;;;;;;;71.95;50.90;;;12.60;99.90;;;;;;5093430;27;20099;-56
2022/09/24 00:16:07;;;;;;;62.28;48.78;;;12.80;99.90;;;;;;5092862;28;21032;-55
2022/09/24 00:18:34;;;;;;;64.50;50.35;;;12.60;99.90;;;;;;5091896;28;20047;-55
2022/09/24 00:20:59;;;;;;;59.28;47.65;;;12.70;99.90;;;;;;5092294;28;20043;-56
2022/09/24 00:23:26;;;;;;;71.40;54.30;;;12.80;99.90;;;;;;5093312;28;20051;-56
2022/09/24 00:28:36;;;;;;;67.50;51.35;;;12.90;99.90;;;;;;5091556;28;20047;-56
2022/09/24 00:31:06;;;;;;;67.32;51.92;;;12.80;99.90;;;;;;5092245;28;20131;-56
2022/09/24 00:33:35;;;;;;;68.45;53.78;;;12.70;99.90;;;;;;5091887;28;20119;-56
2022/09/24 00:36:03;;;;;;;72.28;53.83;;;12.80;99.90;;;;;;5093059;28;20047;-56
2022/09/24 00:38:31;;;;;;;73.95;56.28;;;12.70;99.90;;;;;;5074883;28;20036;-56
2022/09/24 00:40:58;;;;;;;77.63;57.42;;;13.70;99.90;;;;;;5092499;28;20043;-56
2022/09/24 00:43:27;;;;;;;74.60;58.42;;;12.80;99.90;;;;;;5091705;28;21144;-56
2022/09/24 00:46:04;;;;;;;76.40;59.05;;;12.90;99.90;;;;;;5091180;28;20054;-56
2022/09/24 00:48:33;;;;;;;85.50;61.55;;;12.70;99.90;;;;;;5092488;28;20499;-56
2022/09/24 00:51:00;;;;;;;79.18;61.22;;;12.90;99.90;;;;;;5091225;28;20108;-56
2022/09/24 00:53:31;;;;;;;76.15;59.08;;;12.90;99.90;;;;;;5091324;28;20626;-54
2022/09/24 00:55:58;;;;;;;82.57;61.03;;;12.90;99.90;;;;;;5090542;28;20054;-56
2022/09/24 00:58:25;;;;;;;89.53;62.92;;;12.90;99.90;;;;;;5089859;28;20044;-56
2022/09/24 01:00:56;;;;;;;82.38;62.90;;;12.90;99.90;;;;;;5091713;28;20062;-56
2022/09/24 01:03:25;;;;;;;87.75;64.43;;;12.90;99.90;;;;;;5092444;28;20062;-56
2022/09/24 01:05:51;;;;;;;90.85;64.30;;;13.10;99.90;;;;;;5095878;27;20058;-56
2022/09/24 01:08:19;;;;;;;92.47;63.95;;;13.00;99.90;;;;;;5096283;27;20567;-56
2022/09/24 01:11:26;;;;;;;91.82;63.78;;;13.00;99.90;;;;;;5095480;27;20048;-56
2022/09/24 01:14:13;;;;;;;88.75;64.93;;;13.10;99.90;;;;;;5084236;27;20059;-56
2022/09/24 01:17:03;;;;;;;98.53;66.10;;;12.80;99.90;;;;;;5095600;27;20032;-56
2022/09/24 01:20:02;;;;;;;90.47;65.28;;;13.00;99.90;;;;;;5095520;27;20043;-56
2022/09/24 01:22:56;;;;;;;87.18;65.72;;;13.10;99.90;;;;;;5096076;27;20118;-55
2022/09/24 01:25:45;;;;;;;99.60;68.72;;;13.10;99.90;;;;;;5096679;27;20491;-56
2022/09/24 01:28:24;;;;;;;95.20;67.72;;;13.20;99.90;;;;;;5089941;27;20047;-56
2022/09/24 01:30:58;;;;;;;99.25;69.95;;;13.10;99.90;;;;;;5095727;27;20048;-56
2022/09/24 01:33:29;;;;;;;97.18;70.15;;;13.00;99.90;;;;;;5094465;27;20126;-55
2022/09/24 01:35:59;;;;;;;105.13;71.87;;;13.20;99.90;;;;;;5095904;27;20046;-55
2022/09/24 01:38:29;;;;;;;97.97;70.57;;;13.80;99.90;;;;;;5096793;27;20032;-56
2022/09/24 01:40:58;;;;;;;95.18;71.00;;;13.10;99.90;;;;;;5096395;27;20074;-56
2022/09/24 01:43:26;;;;;;;106.35;71.53;;;13.00;99.90;;;;;;5095329;27;20515;-56
2022/09/24 01:45:57;;;;;;;105.75;72.80;;;13.10;99.90;;;;;;5093137;27;20043;-56
2022/09/24 01:48:27;;;;;;;99.97;68.07;;;13.10;99.90;;;;;;5093071;27;20079;-55
2022/09/24 01:51:13;;;;;;;102.45;69.18;;;13.20;99.90;;;;;;5095558;27;20044;-55
2022/09/24 01:53:48;;;;;;;103.90;71.80;;;13.20;99.90;;;;;;5093054;27;20420;-56
2022/09/24 01:56:23;;;;;;;99.68;71.72;;;13.60;99.90;;;;;;5095330;27;20047;-56
2022/09/24 01:58:55;;;;;;;97.10;69.75;;;13.20;99.90;;;;;;5093571;27;20060;-56
2022/09/24 02:01:33;;;;;;;99.93;71.55;;;13.20;99.90;;;;;;5094221;27;20035;-55
2022/09/24 02:04:07;;;;;;;100.78;69.70;;;13.10;99.90;;;;;;5093954;27;20055;-53
2022/09/24 02:06:39;;;;;;;113.35;75.72;;;13.10;99.90;;;;;;5095009;28;20046;-53
2022/09/24 02:09:05;;;;;;;103.55;71.65;;;13.10;99.90;;;;;;5094811;27;20047;-53
2022/09/24 02:11:34;;;;;;;114.72;77.13;;;13.00;99.90;;;;;;5095035;27;20415;-54
2022/09/24 02:14:08;;;;;;;110.07;74.22;;;13.10;99.90;;;;;;5094768;27;20043;-54
2022/09/24 02:16:45;;;;;;;111.03;75.03;;;13.10;99.90;;;;;;5094933;28;20044;-56
2022/09/24 02:19:16;;;;;;;87.47;60.42;;;13.20;99.90;;;;;;5094470;27;20043;-57
2022/09/24 02:21:44;;;;;;;83.00;57.65;;;12.90;99.90;;;;;;5094119;27;20051;-56
2022/09/24 02:24:15;;;;;;;97.85;66.38;;;13.70;99.90;;;;;;5094646;27;20114;-56
2022/09/24 02:26:42;;;;;;;73.97;55.03;;;13.10;99.90;;;;;;5094160;27;20039;-56
2022/09/24 02:29:07;;;;;;;92.78;68.68;;;13.10;99.90;;;;;;5094062;27;20039;-54
2022/09/24 02:31:46;;;;;;;100.22;68.47;;;13.00;99.90;;;;;;5093576;27;20061;-55
2022/09/24 02:34:20;;;;;;;111.07;73.28;;;13.20;99.90;;;;;;5094598;28;20072;-55
2022/09/24 02:36:51;;;;;;;139.57;80.95;;;13.20;99.90;;;;;;5094140;27;20035;-56
2022/09/24 02:39:18;;;;;;;90.78;62.22;;;13.10;99.90;;;;;;5094182;27;20028;-54
2022/09/24 02:41:48;;;;;;;90.10;62.78;;;12.90;99.90;;;;;;5093091;27;20534;-54
2022/09/24 02:44:15;;;;;;;69.35;52.88;;;13.10;99.90;;;;;;5094580;27;20412;-54
2022/09/24 02:46:41;;;;;;;73.85;51.42;;;13.30;99.90;;;;;;5093437;28;20043;-54
2022/09/24 02:49:09;;;;;;;58.63;45.78;;;13.10;99.90;;;;;;5093725;27;20032;-53
2022/09/24 02:51:35;;;;;;;77.45;53.15;;;13.10;99.90;;;;;;5094044;27;20044;-54
2022/09/24 02:54:01;;;;;;;76.15;53.30;;;12.90;99.90;;;;;;5094318;27;20044;-51
2022/09/24 02:56:28;;;;;;;80.13;55.45;;;13.10;99.90;;;;;;5094611;27;20047;-52
2022/09/24 02:58:54;;;;;;;74.80;54.03;;;14.40;99.90;;;;;;5093700;27;20154;-54
2022/09/24 03:01:21;;;;;;;54.95;42.58;;;13.20;99.90;;;;;;5093792;28;20293;-50
2022/09/24 03:03:47;;;;;;;80.55;50.30;;;13.70;99.90;;;;;;5090973;27;20043;-53
2022/09/24 03:06:13;;;;;;;75.47;47.63;;;15.10;99.90;;;;;;5095553;27;20039;-51
2022/09/24 03:08:43;;;;;;;73.30;47.97;;;13.20;99.90;;;;;;5095230;27;20035;-52
2022/09/24 03:11:09;;;;;;;75.90;45.42;;;13.10;99.90;;;;;;5092911;27;20059;-52
2022/09/24 03:13:39;;;;;;;65.47;42.08;;;13.00;99.90;;;;;;5093817;28;20043;-51
2022/09/24 03:16:05;;;;;;;73.20;46.90;;;13.00;99.90;;;;;;5093170;27;20104;-51
2022/09/24 03:18:31;;;;;;;49.00;38.03;;;13.10;99.90;;;;;;5092748;28;20040;-55
2022/09/24 03:21:02;;;;;;;100.78;47.03;;;13.10;99.90;;;;;;5093507;28;20122;-51
2022/09/24 03:23:28;;;;;;;79.22;45.03;;;13.10;99.90;;;;;;5091316;27;20055;-55
2022/09/24 03:25:54;;;;;;;150.05;51.63;;;12.90;99.90;;;;;;5091502;27;20040;-54
2022/09/24 03:28:21;;;;;;;48.72;34.50;;;13.10;99.90;;;;;;5092092;28;20094;-54
2022/09/24 03:30:59;;;;;;;42.45;30.88;;;13.20;99.90;;;;;;5093165;28;20511;-53
2022/09/24 03:33:32;;;;;;;57.30;35.63;;;12.80;99.90;;;;;;5091039;27;20044;-55
2022/09/24 03:36:11;;;;;;;59.15;35.28;;;14.40;99.90;;;;;;5092220;27;20512;-53
2022/09/24 03:38:38;;;;;;;57.97;37.35;;;13.10;99.90;;;;;;5094702;28;20088;-52
2022/09/24 03:41:05;;;;;;;51.75;34.80;;;13.00;99.90;;;;;;5092246;27;20698;-56
2022/09/24 03:43:32;;;;;;;53.75;35.42;;;13.20;99.90;;;;;;5092983;28;20112;-57
2022/09/24 03:45:58;;;;;;;42.47;30.13;;;13.10;99.90;;;;;;5092285;28;21611;-56
2022/09/24 03:48:25;;;;;;;40.25;30.73;;;13.10;99.90;;;;;;5092424;28;24431;-56
2022/09/24 03:50:51;;;;;;;53.78;32.85;;;13.10;99.90;;;;;;5093785;28;20043;-56
2022/09/24 03:53:17;;;;;;;68.53;36.08;;;13.00;99.90;;;;;;5090538;27;20039;-56
2022/09/24 03:55:52;;;;;;;44.17;29.17;;;13.10;99.90;;;;;;5092320;27;20046;-56
2022/09/24 03:58:18;;;;;;;37.60;27.02;;;13.10;99.90;;;;;;5091475;28;20110;-56
2022/09/24 04:00:43;;;;;;;51.17;28.27;;;13.20;99.90;;;;;;5092621;28;21098;-56
2022/09/24 04:03:10;;;;;;;44.40;29.10;;;13.10;99.90;;;;;;5090912;28;20392;-56
2022/09/24 04:05:36;;;;;;;39.90;27.40;;;13.30;99.90;;;;;;5092539;27;20159;-57
2022/09/24 04:08:02;;;;;;;35.35;26.63;;;13.00;99.90;;;;;;5093709;27;20130;-56
2022/09/24 04:10:28;;;;;;;44.33;29.45;;;13.10;99.90;;;;;;5093412;28;20040;-57
2022/09/24 04:12:54;;;;;;;36.17;26.27;;;13.20;99.90;;;;;;5090930;28;20046;-56
2022/09/24 04:15:20;;;;;;;35.05;26.48;;;13.20;99.90;;;;;;5093074;28;20052;-57
2022/09/24 04:17:53;;;;;;;42.15;29.80;;;13.00;99.90;;;;;;5092319;28;20777;-56
2022/09/24 04:20:21;;;;;;;39.13;28.52;;;13.20;99.90;;;;;;5094346;28;20044;-56
2022/09/24 04:22:51;;;;;;;30.25;23.17;;;13.10;99.90;;;;;;5093207;28;20044;-56
2022/09/24 04:25:17;;;;;;;33.90;26.13;;;13.10;99.90;;;;;;5092236;28;20046;-56
2022/09/24 04:27:46;;;;;;;64.75;35.53;;;13.20;99.90;;;;;;5092470;28;20043;-56
2022/09/24 04:30:13;;;;;;;76.47;35.78;;;13.10;99.90;;;;;;5092309;28;20051;-56
2022/09/24 04:32:40;;;;;;;47.00;30.33;;;13.20;99.90;;;;;;5093322;28;20074;-56
2022/09/24 04:35:07;;;;;;;58.17;32.85;;;13.20;99.90;;;;;;5092201;28;20595;-56
2022/09/24 04:37:33;;;;;;;51.28;30.95;;;13.20;99.90;;;;;;5092497;28;20036;-57
2022/09/24 04:39:58;;;;;;;40.47;27.40;;;13.00;99.90;;;;;;5095201;28;20035;-56
2022/09/24 04:42:24;;;;;;;50.67;29.60;;;13.00;99.90;;;;;;5095495;28;20027;-56
2022/09/24 04:44:50;;;;;;;62.47;28.45;;;14.60;99.90;;;;;;5094737;27;20053;-56
2022/09/24 04:47:16;;;;;;;43.40;23.77;;;13.10;99.90;;;;;;5096495;27;20032;-56
2022/09/24 04:49:44;;;;;;;44.90;22.05;;;13.20;99.90;;;;;;5096298;27;20071;-56
2022/09/24 04:52:13;;;;;;;20.08;11.00;;;13.30;99.90;;;;;;5096320;27;20067;-56
2022/09/24 04:54:45;;;;;;;26.17;9.55;;;13.20;99.90;;;;;;5096594;27;20043;-56
2022/09/24 04:57:13;;;;;;;21.02;8.60;;;15.40;99.90;;;;;;5096797;28;20039;-56
2022/09/24 04:59:39;;;;;;;19.02;6.60;;;13.30;99.90;;;;;;5095884;27;20051;-56
2022/09/24 05:02:07;;;;;;;15.27;4.85;;;13.10;99.90;;;;;;5095148;27;20108;-57
2022/09/24 05:04:34;;;;;;;13.02;3.38;;;13.20;99.90;;;;;;5095886;27;20043;-56
2022/09/24 05:07:00;;;;;;;19.55;3.92;;;13.20;99.90;;;;;;5095639;27;20051;-57
2022/09/24 05:09:26;;;;;;;16.73;3.83;;;13.20;99.90;;;;;;5094520;27;20556;-57
2022/09/24 05:11:52;;;;;;;21.05;4.28;;;13.40;99.90;;;;;;5095897;27;20114;-56
2022/09/24 05:14:18;;;;;;;22.20;3.40;;;13.10;99.90;;;;;;5095536;27;20046;-56
2022/09/24 05:16:43;;;;;;;13.90;3.08;;;13.00;99.90;;;;;;5097159;27;20043;-56
2022/09/24 05:19:09;;;;;;;24.23;3.67;;;13.30;99.90;;;;;;5096293;27;20404;-60
2022/09/24 05:21:35;;;;;;;25.58;3.97;;;13.20;99.90;;;;;;5096158;27;20039;-56
2022/09/24 05:24:00;;;;;;;18.48;3.35;;;13.00;99.90;;;;;;5097446;27;20511;-56
2022/09/24 05:29:10;;;;;;;23.65;13.90;;;13.10;99.90;;;;;;5096916;27;20047;-56
2022/09/24 05:31:36;;;;;;;26.27;11.93;;;13.10;99.90;;;;;;5095213;27;20393;-56
2022/09/24 05:34:02;;;;;;;12.98;5.50;;;13.20;99.90;;;;;;5096204;27;20051;-56
2022/09/24 05:36:28;;;;;;;25.35;13.48;;;12.90;99.90;;;;;;5095937;28;20043;-56
2022/09/24 05:38:54;;;;;;;60.30;48.90;;;12.90;99.90;;;;;;5095126;28;20150;-56
2022/09/24 05:41:20;;;;;;;30.35;12.07;;;12.80;99.90;;;;;;5095710;27;20089;-56
2022/09/24 05:43:46;;;;;;;33.53;26.60;;;13.00;99.90;;;;;;5092181;27;20518;-56
2022/09/24 05:46:12;;;;;;;26.55;7.53;;;13.40;99.90;;;;;;5095910;27;20048;-56
2022/09/24 05:48:38;;;;;;;29.63;14.43;;;13.10;99.90;;;;;;5094531;27;20059;-56
2022/09/24 05:51:04;;;;;;;30.67;6.55;;;13.10;99.90;;;;;;5093170;27;20487;-56
2022/09/24 05:53:30;;;;;;;42.95;27.40;;;13.10;99.90;;;;;;5095442;27;20067;-56
2022/09/24 05:55:57;;;;;;;36.10;24.83;;;13.20;99.90;;;;;;5094101;28;20051;-56
2022/09/24 05:58:23;;;;;;;86.68;72.15;;;13.10;99.90;;;;;;5093900;28;20056;-56
2022/09/24 06:00:50;;;;;;;43.35;29.17;;;13.00;99.90;;;;;;5093255;27;20426;-56
2022/09/24 06:03:17;;;;;;;25.63;10.35;;;13.10;99.90;;;;;;5093421;27;20031;-56
2022/09/24 06:05:47;;;;;;;30.77;21.50;;;13.00;99.90;;;;;;5095621;27;20055;-56
2022/09/24 06:08:14;;;;;;;28.48;11.85;;;13.10;99.90;;;;;;5095135;27;20040;-55
2022/09/24 06:10:45;;;;;;;23.10;4.68;;;13.10;99.90;;;;;;5093070;27;20046;-56
2022/09/24 06:13:13;;;;;;;22.30;5.88;;;13.20;99.90;;;;;;5093958;27;20407;-56
2022/09/24 06:15:41;;;;;;;17.38;3.92;;;13.10;99.90;;;;;;5094026;27;20438;-55
2022/09/24 06:18:09;;;;;;;17.55;4.00;;;13.20;99.90;;;;;;5093269;27;20070;-56
2022/09/24 06:20:34;;;;;;;17.40;3.33;;;13.10;99.90;;;;;;5093459;28;22321;-57
2022/09/24 06:23:01;;;;;;;19.33;4.35;;;13.10;99.90;;;;;;5094823;28;20129;-56
2022/09/24 06:25:27;;;;;;;14.57;2.83;;;13.10;99.90;;;;;;5092846;27;20040;-55
2022/09/24 06:27:59;;;;;;;17.52;3.30;;;13.20;99.90;;;;;;5093549;27;20047;-49
2022/09/24 06:30:29;;;;;;;19.10;3.20;;;13.10;99.90;;;;;;5093629;27;20111;-47
2022/09/24 06:32:54;;;;;;;18.75;3.45;;;11.50;99.90;;;;;;5093886;27;20474;-47
2022/09/24 06:35:20;;;;;;;20.45;3.38;;;13.20;99.90;;;;;;5094419;27;20095;-48
2022/09/24 06:37:48;;;;;;;19.10;2.80;;;13.00;99.90;;;;;;5095383;27;20047;-45
2022/09/24 06:40:14;;;;;;;16.60;2.78;;;13.20;99.90;;;;;;5096028;28;20310;-48
2022/09/24 06:42:40;;;;;;;16.83;2.95;;;14.90;99.90;;;;;;5095079;27;20096;-50
2022/09/24 06:45:06;;;;;;;19.90;3.00;;;13.20;99.90;;;;;;5094933;27;20043;-48
2022/09/24 06:47:32;;;;;;;14.55;2.67;;;13.20;99.90;;;;;;5096421;27;20087;-50
2022/09/24 06:49:57;;;;;;;17.08;2.47;;;13.30;99.90;;;;;;5093292;27;20043;-49
2022/09/24 06:52:23;;;;;;;17.45;3.00;;;14.70;99.90;;;;;;5094683;27;20031;-48
2022/09/24 06:54:49;;;;;;;14.02;3.60;;;13.30;99.90;;;;;;5093876;27;20659;-49
2022/09/24 06:57:14;;;;;;;11.90;2.90;;;13.40;99.90;;;;;;5094536;28;20075;-47
2022/09/24 06:59:40;;;;;;;11.77;2.00;;;13.30;99.90;;;;;;5093149;27;20055;-49
2022/09/24 07:02:09;;;;;;;22.67;2.45;;;13.30;99.90;;;;;;5092076;27;20035;-50
2022/09/24 07:04:34;;;;;;;16.63;2.22;;;13.50;99.90;;;;;;5093366;27;20122;-49
2022/09/24 07:09:44;;;;;;;12.35;2.17;;;13.50;99.90;;;;;;5093995;28;20098;-50
2022/09/24 07:12:10;;;;;;;15.35;2.20;;;13.40;99.90;;;;;;5093045;28;20380;-48
2022/09/24 07:14:36;;;;;;;19.27;2.75;;;15.30;99.90;;;;;;5093901;27;20040;-49
2022/09/24 07:17:01;;;;;;;22.48;2.88;;;13.70;99.90;;;;;;5093950;27;20047;-49
2022/09/24 07:19:27;;;;;;;13.20;2.00;;;13.50;99.90;;;;;;5093070;27;20127;-50
2022/09/24 07:21:53;;;;;;;12.20;2.20;;;13.60;99.90;;;;;;5094039;27;20052;-48
2022/09/24 07:24:18;;;;;;;11.55;1.95;;;15.40;99.90;;;;;;5092890;27;20190;-48
2022/09/24 07:26:44;;;;;;;16.38;3.15;;;13.80;99.90;;;;;;5093721;27;20488;-50
2022/09/24 07:29:10;;;;;;;15.25;2.22;;;13.70;99.90;;;;;;5093334;28;21045;-50
2022/09/24 07:31:36;;;;;;;13.45;1.70;;;14.00;99.90;;;;;;5091136;27;20094;-49
2022/09/24 07:34:01;;;;;;;11.88;1.95;;;14.30;99.90;;;;;;5093100;27;20055;-46
2022/09/24 07:36:30;;;;;;;12.45;1.83;;;14.40;99.90;;;;;;5093166;27;20078;-49
2022/09/24 07:38:57;;;;;;;15.35;2.72;;;14.30;99.90;;;;;;5094612;27;20143;-48
2022/09/24 07:41:23;;;;;;;12.85;2.00;;;15.80;99.90;;;;;;5094710;27;20509;-49
2022/09/24 07:43:48;;;;;;;10.32;1.70;;;14.40;99.90;;;;;;5093805;27;20162;-49
2022/09/24 07:46:14;;;;;;;11.88;2.47;;;14.30;99.90;;;;;;5093123;28;20042;-50
2022/09/24 07:48:40;;;;;;;12.43;1.58;;;14.20;99.90;;;;;;5093185;27;20106;-50
2022/09/24 07:51:08;;;;;;;10.48;1.70;;;14.40;99.90;;;;;;5093579;28;20036;-50
2022/09/24 07:53:34;;;;;;;9.98;1.65;;;14.40;99.90;;;;;;5092471;27;20050;-46
2022/09/24 07:56:00;;;;;;;13.63;1.88;;;14.40;99.90;;;;;;5093360;28;20408;-50
2022/09/24 07:58:26;;;;;;;13.82;2.38;;;14.30;99.90;;;;;;5092517;28;20938;-47
2022/09/24 08:00:57;;;;;;;11.68;1.65;;;12.70;99.90;;;;;;5092863;28;20126;-48
2022/09/24 08:03:23;;;;;;;14.57;2.78;;;14.30;99.90;;;;;;5092456;28;20048;-50
2022/09/24 08:05:49;;;;;;;13.18;2.22;;;14.20;99.90;;;;;;5093282;28;20050;-49
2022/09/24 08:08:15;;;;;;;14.35;1.80;;;14.30;99.90;;;;;;5092726;28;20350;-51
2022/09/24 08:10:41;;;;;;;11.82;2.25;;;14.30;99.90;;;;;;5093486;28;20032;-49
2022/09/24 08:13:08;;;;;;;17.60;2.55;;;14.40;99.90;;;;;;5092830;28;20047;-47
2022/09/24 08:15:33;;;;;;;14.48;2.00;;;14.50;99.90;;;;;;5092783;28;20039;-48
2022/09/24 08:18:03;;;;;;;11.27;1.60;;;16.40;99.90;;;;;;5092013;28;20522;-48
2022/09/24 08:20:30;;;;;;;11.85;2.20;;;14.50;99.90;;;;;;5090758;28;20044;-50
2022/09/24 08:23:01;;;;;;;13.50;1.75;;;14.40;99.90;;;;;;5092331;28;20411;-50
2022/09/24 08:25:26;;;;;;;11.00;1.52;;;14.40;99.90;;;;;;5091963;28;20325;-49
2022/09/24 08:27:52;;;;;;;11.93;2.03;;;14.50;99.90;;;;;;5092165;28;20559;-46
2022/09/24 08:30:20;;;;;;;12.60;1.83;;;14.30;99.90;;;;;;5093032;28;20067;-45
2022/09/24 08:32:47;;;;;;;11.38;1.75;;;14.50;99.90;;;;;;5091509;28;20351;-48
2022/09/24 08:35:14;;;;;;;10.55;1.60;;;15.00;99.90;;;;;;5091737;28;20794;-47
2022/09/24 08:37:40;;;;;;;10.23;2.00;;;14.30;99.80;;;;;;5092783;28;20044;-45
2022/09/24 08:40:12;;;;;;;8.95;1.17;;;14.60;99.90;;;;;;5093322;28;22167;-46
2022/09/24 08:42:43;;;;;;;;;;;14.10;99.90;;;;;;5092394;28;20048;-46
2022/09/24 08:48:14;;;;;;;5.90;1.33;;;14.30;99.40;;;;;;5092059;28;20062;-46
2022/09/24 08:50:51;;;;;;;11.57;1.48;;;15.50;97.60;;;;;;5093362;28;20381;-47
2022/09/24 08:53:31;;;;;;;9.68;1.90;;;14.30;98.40;;;;;;5091795;28;20154;-48
2022/09/24 08:56:00;;;;;;;10.88;2.03;;;14.40;97.50;;;;;;5092160;28;20055;-49
2022/09/24 08:58:30;;;;;;;10.73;1.70;;;14.20;99.90;;;;;;5092169;28;20070;-50
2022/09/24 09:01:11;;;;;;;10.50;1.85;;;14.50;98.70;;;;;;5092709;28;20117;-47
2022/09/24 09:03:44;;;;;;;9.25;1.63;;;14.40;97.40;;;;;;5091944;28;20483;-46
2022/09/24 09:06:35;;;;;;;10.30;1.65;;;14.50;98.10;;;;;;5092660;28;20123;-45
2022/09/24 09:09:11;;;;;;;13.37;1.30;;;14.30;95.40;;;;;;5093920;28;20047;-50
2022/09/24 09:11:41;;;;;;;6.53;1.05;;;14.50;93.50;;;;;;5093293;28;20043;-49
2022/09/24 09:14:40;;;;;;;5.97;1.67;;;14.60;96.50;;;;;;5092762;28;20043;-51
2022/09/24 09:17:18;;;;;;;7.43;1.40;;;14.60;98.10;;;;;;5092534;28;20380;-46
2022/09/24 09:19:52;;;;;;;9.30;1.73;;;14.50;98.50;;;;;;5092752;28;20452;-51
2022/09/24 09:22:22;;;;;;;9.27;1.40;;;12.60;99.90;;;;;;5092866;28;20043;-46
2022/09/24 09:24:51;;;;;;;8.60;1.23;;;14.60;99.90;;;;;;5091428;28;20609;-46
2022/09/24 09:27:19;;;;;;;9.05;1.67;;;14.60;99.90;;;;;;5096042;27;20043;-47
2022/09/24 09:29:48;;;;;;;9.50;1.42;;;14.40;99.70;;;;;;5095150;27;20046;-49
2022/09/24 09:32:51;;;;;;;15.20;2.30;;;14.50;99.90;;;;;;5093286;28;20127;-49
2022/09/24 09:35:34;;;;;;;6.65;1.40;;;14.60;97.90;;;;;;5095693;27;20044;-51
2022/09/24 09:38:37;;;;;;;10.73;1.40;;;14.50;99.00;;;;;;5094065;27;20473;-48
2022/09/24 09:41:17;;;;;;;;;;;14.60;99.80;;;;;;5095906;27;20046;-47
2022/09/24 09:43:43;;;;;;;8.85;1.77;;;14.50;99.90;;;;;;5095262;27;19928;-49
2022/09/24 09:46:24;;;;;;;9.48;1.92;;;14.50;99.90;;;;;;5095069;27;20035;-46
2022/09/24 09:48:55;;;;;;;9.75;1.60;;;14.50;99.90;;;;;;5096449;27;20031;-50
2022/09/24 09:51:25;;;;;;;8.55;1.98;;;14.30;99.90;;;;;;5096754;27;20545;-44
2022/09/24 09:54:01;;;;;;;7.70;1.10;;;14.50;99.90;;;;;;5095344;27;20140;-47
2022/09/24 09:56:34;;;;;;;10.38;1.67;;;14.50;99.90;;;;;;5094339;27;20036;-49
2022/09/24 09:59:06;;;;;;;10.63;2.22;;;14.60;99.90;;;;;;5094422;27;20161;-47
2022/09/24 10:01:36;;;;;;;8.45;1.83;;;14.70;99.90;;;;;;5094395;27;20047;-46
2022/09/24 10:04:03;;;;;;;7.65;1.23;;;14.60;96.90;;;;;;5094717;27;20506;-45
2022/09/24 10:06:35;;;;;;;8.15;1.45;;;14.80;95.30;;;;;;5094542;27;20525;-47
2022/09/24 10:09:20;;;;;;;8.07;1.40;;;14.70;94.70;;;;;;5094452;27;20062;-47
2022/09/24 10:11:47;;;;;;;11.57;1.50;;;14.60;92.50;;;;;;5094500;27;20032;-45
2022/09/24 10:14:15;;;;;;;8.93;1.15;;;14.60;95.10;;;;;;5094699;27;20378;-47
2022/09/24 10:16:44;;;;;;;10.77;1.63;;;14.30;97.10;;;;;;5094161;27;20882;-50
2022/09/24 10:19:18;;;;;;;10.77;1.55;;;14.40;97.70;;;;;;5094687;27;20101;-46
2022/09/24 10:21:43;;;;;;;8.30;2.17;;;14.30;97.40;;;;;;5095549;27;20047;-50
2022/09/24 10:24:20;;;;;;;10.80;1.50;;;14.10;95.60;;;;;;5095069;27;20051;-50
2022/09/24 10:26:47;;;;;;;10.27;1.58;;;14.30;98.30;;;;;;5094142;28;20046;-45
2022/09/24 10:32:04;;;;;;;8.85;1.88;;;14.30;99.90;;;;;;5094203;27;20043;-47
2022/09/24 10:34:30;;;;;;;18.00;1.90;;;14.00;99.90;;;;;;5091835;27;20450;-47
2022/09/24 10:37:12;;;;;;;11.43;1.67;;;16.10;99.90;;;;;;5091567;27;20047;-50
2022/09/24 10:39:38;;;;;;;15.10;3.47;;;14.00;99.90;;;;;;5092975;28;20119;-50
2022/09/24 10:42:06;;;;;;;8.27;1.10;;;14.10;99.90;;;;;;5094882;27;20058;-49
2022/09/24 10:44:35;;;;;;;12.50;1.50;;;14.10;99.90;;;;;;5092071;27;20052;-45
2022/09/24 10:47:25;;;;;;;10.43;1.55;;;14.20;99.90;;;;;;5094149;27;20043;-50
2022/09/24 10:49:56;;;;;;;12.60;1.50;;;14.10;99.90;;;;;;5094190;27;20051;-50
2022/09/24 10:53:21;;;;;;;6.22;1.17;;;14.10;99.90;;;;;;5089936;27;20228;-50
2022/09/24 10:56:06;;;;;;;8.45;2.03;;;14.20;99.90;;;;;;5074895;28;20044;-51
2022/09/24 10:59:06;;;;;;;13.35;1.65;;;13.90;99.90;;;;;;5093221;28;21882;-49
2022/09/24 11:02:00;;;;;;;12.18;1.70;;;14.00;99.90;;;;;;5092636;28;20039;-50
2022/09/24 11:04:41;;;;;;;10.57;1.85;;;14.00;99.90;;;;;;5093933;27;20032;-49
2022/09/24 11:07:43;;;;;;;8.77;1.65;;;13.90;99.90;;;;;;5094532;27;20082;-49
2022/09/24 11:10:27;;;;;;;17.38;2.83;;;13.90;99.90;;;;;;5093471;27;20607;-50
2022/09/24 11:13:18;;;;;;;14.27;1.70;;;13.80;99.90;;;;;;5094513;28;20088;-50
2022/09/24 11:15:44;;;;;;;16.35;2.35;;;13.70;99.90;;;;;;5094187;27;20527;-49
2022/09/24 11:18:33;;;;;;;15.77;2.45;;;15.60;99.90;;;;;;5093473;27;20042;-49
2022/09/24 11:21:18;;;;;;;13.15;2.28;;;13.70;99.90;;;;;;5092937;28;20098;-45
2022/09/24 11:23:56;;;;;;;12.40;1.65;;;13.80;99.90;;;;;;5092603;27;20031;-47
2022/09/24 11:26:34;;;;;;;14.77;2.97;;;13.70;99.90;;;;;;5092542;28;20201;-49
2022/09/24 11:29:22;;;;;;;13.55;1.92;;;13.40;99.90;;;;;;5092091;28;20034;-49
2022/09/24 11:32:08;;;;;;;12.63;3.67;;;13.70;99.90;;;;;;5091382;27;20036;-50
2022/09/24 11:34:56;;;;;;;9.07;1.60;;;13.70;99.90;;;;;;5091455;27;20056;-50
2022/09/24 11:37:39;;;;;;;12.65;1.73;;;13.60;99.90;;;;;;5092306;27;20840;-45
2022/09/24 11:40:30;;;;;;;14.18;2.60;;;13.60;99.90;;;;;;5091093;28;20039;-49
2022/09/24 11:43:06;;;;;;;28.40;15.15;;;13.60;99.90;;;;;;5092643;28;20046;-48
2022/09/24 11:45:53;;;;;;;13.50;4.25;;;13.50;99.90;;;;;;5093479;27;20044;-45
2022/09/24 11:48:43;;;;;;;11.32;1.92;;;13.90;99.90;;;;;;5094370;27;20419;-46
2022/09/24 11:51:35;;;;;;;12.32;2.25;;;13.60;99.90;;;;;;5093498;28;20070;-50
2022/09/24 11:54:27;;;;;;;;;;;13.90;99.90;;;;;;5094353;28;20055;-46
2022/09/24 11:57:20;;;;;;;14.33;2.17;;;13.70;99.90;;;;;;5076239;28;20083;-49
2022/09/24 11:59:57;;;;;;;12.45;1.92;;;15.50;99.90;;;;;;5092661;28;20047;-49
2022/09/24 12:02:35;;;;;;;14.38;2.42;;;13.50;99.90;;;;;;5093009;28;20044;-47
2022/09/24 12:05:20;;;;;;;16.63;2.67;;;13.70;99.90;;;;;;5093099;28;20122;-48
2022/09/24 12:08:09;;;;;;;17.90;2.58;;;13.70;99.90;;;;;;5093464;28;20059;-50
2022/09/24 12:10:51;;;;;;;17.42;3.00;;;13.70;99.90;;;;;;5093794;28;20040;-46
2022/09/24 12:13:22;;;;;;;13.77;2.30;;;13.70;99.90;;;;;;5091908;28;20047;-51
2022/09/24 12:15:58;;;;;;;15.05;2.20;;;13.90;99.90;;;;;;5091980;28;20071;-48
2022/09/24 12:18:49;;;;;;;12.75;2.47;;;13.60;99.90;;;;;;5092077;28;20054;-50
2022/09/24 12:21:20;;;;;;;16.77;2.42;;;13.80;99.90;;;;;;5092478;27;20051;-51
2022/09/24 12:23:50;;;;;;;13.35;2.67;;;16.00;99.90;;;;;;5092707;28;20036;-50
2022/09/24 12:26:18;;;;;;;12.38;1.77;;;13.90;99.90;;;;;;5091948;28;20155;-47
2022/09/24 12:34:59;;;;;;;14.60;2.60;;;13.90;99.90;;;;;;5092923;28;20060;-50
2022/09/24 12:37:38;;;;;;;13.73;2.58;;;13.90;99.90;;;;;;5091466;28;20615;-48
2022/09/24 12:40:29;;;;;;;16.92;2.10;;;13.90;99.90;;;;;;5093141;28;20051;-49
2022/09/24 12:42:58;;;;;;;14.23;2.53;;;14.10;99.90;;;;;;5092556;28;20434;-49
2022/09/24 12:45:25;;;;;;;11.35;1.67;;;14.10;99.90;;;;;;5091288;28;20046;-48
2022/09/24 12:47:58;;;;;;;12.95;1.90;;;14.20;99.90;;;;;;5092324;28;20050;-47
2022/09/24 12:50:27;;;;;;;13.88;2.00;;;14.10;99.90;;;;;;5092169;28;20038;-50
2022/09/24 12:52:55;;;;;;;10.52;1.70;;;14.30;99.90;;;;;;5091209;28;20044;-50
2022/09/24 12:55:30;;;;;;;9.73;1.80;;;14.10;99.90;;;;;;5091763;28;20039;-48
2022/09/24 12:58:05;;;;;;;10.82;2.20;;;14.10;99.90;;;;;;5092149;28;20048;-49
2022/09/24 13:00:31;;;;;;;9.65;1.90;;;13.90;99.90;;;;;;5094783;27;20047;-49
2022/09/24 13:02:57;;;;;;;17.15;3.17;;;13.90;99.90;;;;;;5096535;27;20051;-49
2022/09/24 13:05:26;;;;;;;13.50;1.75;;;13.90;99.90;;;;;;5095769;27;20062;-48
2022/09/24 13:07:59;;;;;;;10.82;1.80;;;13.80;99.90;;;;;;5095885;27;20055;-49
2022/09/24 13:10:30;;;;;;;9.90;1.77;;;13.70;99.90;;;;;;5096900;27;20043;-49
2022/09/24 13:12:58;;;;;;;14.32;2.35;;;15.00;99.90;;;;;;5095219;27;20977;-50
2022/09/24 13:15:39;;;;;;;8.65;2.08;;;13.80;99.90;;;;;;5095239;27;20112;-49